Bookmark and Share
Track history (hours):
 

Cosco Aden

Last reported at 2014-Apr-18 02:27 UTC. Time now 2014-Apr-18 03:01 UTC.
Position N 29°35' E 122°50'.

Length 261 m; draft 11.3 m.

Type: Ship (hazmat cat A). MMSI: 477765900.

NotesDate/timePositionNaut miles runAvg speedWind from/ knotsBaromVisibWave heightAir tempDewpointWater temp
2014-Apr-18 02:27N 29°35' E 122°50'3410.8
2014-Apr-17 23:18N 29°04' E 122°34'38512.0
2014-Apr-16 15:09N 23°52' E 118°23'1215.1
2014-Apr-16 14:19N 23°45' E 118°12'1215.8
2014-Apr-16 13:33N 23°37' E 118°02'1615.7
2014-Apr-16 12:31N 23°26' E 117°49'1615.8
2014-Apr-16 11:28N 23°11' E 117°41'1414.7
2014-Apr-16 10:30N 22°58' E 117°35'1713.7
2014-Apr-16 09:14N 22°42' E 117°29'5 4.5
2014-Apr-16 08:10N 22°38' E 117°25'711.4
2014-Apr-16 07:33N 22°31' E 117°22'2319.0
2014-Apr-16 06:21N 22°11' E 117°11'  
2014-Apr-12 16:33N 01°11' E 103°50'5 4.7
2014-Apr-12 15:33N 01°14' E 103°47'3 3.3
2014-Apr-12 14:34N 01°17' E 103°46'0 0.0
2014-Apr-12 13:33N 01°17' E 103°46'0 0.0
2014-Apr-12 12:33N 01°17' E 103°46'0 0.0
2014-Apr-12 11:27N 01°17' E 103°46'0 0.0
2014-Apr-12 10:27N 01°17' E 103°46'0 0.1
2014-Apr-12 09:30N 01°17' E 103°46'0 0.1
2014-Apr-12 08:33N 01°17' E 103°46'0 0.0
2014-Apr-12 07:24N 01°17' E 103°46'0 0.0
2014-Apr-12 06:30N 01°17' E 103°46'0 0.1
2014-Apr-12 05:33N 01°17' E 103°46'0 0.1
2014-Apr-12 04:33N 01°17' E 103°46'0 0.0
2014-Apr-12 03:33N 01°17' E 103°46'0 0.0
2014-Apr-12 02:30N 01°17' E 103°46'0 0.0
2014-Apr-12 01:27N 01°17' E 103°46'0 0.1
2014-Apr-12 00:33N 01°17' E 103°46'0 0.1
2014-Apr-11 23:33N 01°17' E 103°46'0 0.0
2014-Apr-11 22:24N 01°17' E 103°46'0 0.0
2014-Apr-11 21:30N 01°17' E 103°46'0 0.0
2014-Apr-11 20:27N 01°17' E 103°46'0 0.0
2014-Apr-11 19:30N 01°17' E 103°46'0 0.3
2014-Apr-11 18:33N 01°17' E 103°46'5 5.0
2014-Apr-11 17:33N 01°14' E 103°42'9 8.8
2014-Apr-11 16:33N 01°11' E 103°33'6 6.1
2014-Apr-11 15:33N 01°10' E 103°28'10 9.9
2014-Apr-11 14:32N 01°16' E 103°19'4 0.1
2014-Apr-09 11:27N 01°16' E 103°23'9 9.7
2014-Apr-09 10:32N 01°12' E 103°31'1414.2
2014-Apr-09 09:34N 01°09' E 103°45'1515.5
2014-Apr-09 08:34N 01°15' E 103°59'  

Dump ship's entire track history

sailing weather and tide predictions

Cosco Aden — VRKF9 — position and weather